createdAt,value
2023-01-13T00:02:17.007Z,6.50
2023-01-13T00:04:58.597Z,4.70
2023-01-13T00:07:27.514Z,5.00
2023-01-13T00:10:11.943Z,5.40
2023-01-13T00:12:48.386Z,3.80
2023-01-13T00:15:26.403Z,5.50
2023-01-13T00:17:55.382Z,7.00
2023-01-13T00:20:26.333Z,3.80
2023-01-13T00:23:15.259Z,6.70
2023-01-13T00:25:44.268Z,4.20
2023-01-13T00:28:33.471Z,5.30
2023-01-13T00:31:22.523Z,4.10
2023-01-13T00:33:58.024Z,3.30
2023-01-13T00:36:29.374Z,4.40
2023-01-13T00:38:58.856Z,6.00
2023-01-13T00:42:05.838Z,6.20
2023-01-13T00:44:48.504Z,5.20
2023-01-13T00:47:28.421Z,5.80
2023-01-13T00:49:57.205Z,4.40
2023-01-13T00:52:35.355Z,5.60
2023-01-13T00:55:24.306Z,6.30
2023-01-13T00:57:53.158Z,4.60
2023-01-13T01:00:33.083Z,6.00
2023-01-13T01:03:09.157Z,6.50
2023-01-13T01:05:41.083Z,3.80
2023-01-13T01:08:09.856Z,5.20
2023-01-13T01:11:03.058Z,5.90
2023-01-13T01:13:32.496Z,5.90
2023-01-13T01:16:08.267Z,6.70
2023-01-13T01:18:57.335Z,5.30
2023-01-13T01:21:37.195Z,5.70
2023-01-13T01:24:07.087Z,7.60
2023-01-13T01:26:46.047Z,4.30
2023-01-13T01:29:17.552Z,5.40
2023-01-13T01:31:46.338Z,5.70
2023-01-13T01:34:35.744Z,4.40
2023-01-13T01:37:07.637Z,5.40
2023-01-13T01:39:44.317Z,4.50
2023-01-13T01:42:44.902Z,3.40
2023-01-13T01:45:24.933Z,3.70
2023-01-13T01:48:05.915Z,6.20
2023-01-13T01:50:35.816Z,4.70
2023-01-13T01:53:19.351Z,5.30
2023-01-13T01:55:54.606Z,4.80
2023-01-13T01:58:29.490Z,4.70
2023-01-13T02:01:18.603Z,8.00
2023-01-13T02:04:12.826Z,3.40
2023-01-13T02:07:04.226Z,3.70
2023-01-13T02:09:44.516Z,3.10
2023-01-13T02:12:34.994Z,5.10
2023-01-13T02:15:32.179Z,6.70
2023-01-13T02:18:38.101Z,5.00
2023-01-13T02:21:42.661Z,4.60
2023-01-13T02:25:04.272Z,6.30
2023-01-13T02:28:13.511Z,6.10
2023-01-13T02:31:18.009Z,5.50
2023-01-13T02:34:11.268Z,4.10
2023-01-13T02:37:08.614Z,7.80
2023-01-13T02:40:01.492Z,5.50
2023-01-13T02:42:51.823Z,6.40
2023-01-13T02:45:44.849Z,5.30
2023-01-13T02:48:19.024Z,6.30
2023-01-13T02:51:11.499Z,5.10
2023-01-13T02:53:56.561Z,7.90
2023-01-13T02:56:26.583Z,5.90
2023-01-13T02:59:10.471Z,6.70
2023-01-13T03:01:39.517Z,5.20
2023-01-13T03:05:00.836Z,7.00
2023-01-13T03:08:30.851Z,5.90
2023-01-13T03:11:08.137Z,9.10
2023-01-13T03:13:52.452Z,5.00
2023-01-13T03:16:51.986Z,4.60
2023-01-13T03:19:36.191Z,5.40
2023-01-13T03:22:22.840Z,4.30
2023-01-13T03:25:11.682Z,6.50
2023-01-13T03:33:30.187Z,4.50
2023-01-13T03:36:08.914Z,10.20
2023-01-13T03:38:46.596Z,7.70
2023-01-13T03:41:24.534Z,5.20
2023-01-13T03:44:22.426Z,6.70
2023-01-13T03:47:04.241Z,8.50
2023-01-13T03:49:42.242Z,7.20
2023-01-13T03:52:23.304Z,5.70
2023-01-13T03:54:59.106Z,6.90
2023-01-13T03:57:37.533Z,5.20
2023-01-13T04:00:14.603Z,6.00
2023-01-13T04:02:55.697Z,3.80
2023-01-13T04:05:31.285Z,4.30
2023-01-13T04:08:26.127Z,4.20
2023-01-13T04:11:04.703Z,4.10
2023-01-13T04:13:41.358Z,9.10
2023-01-13T04:16:16.425Z,4.60
2023-01-13T04:18:51.081Z,12.60
2023-01-13T04:21:23.839Z,9.50
2023-01-13T04:23:58.428Z,21.70
2023-01-13T04:29:01.425Z,11.40
2023-01-13T04:31:34.002Z,4.60
2023-01-13T04:34:06.685Z,7.50
2023-01-13T04:36:43.693Z,4.30
2023-01-13T04:39:15.828Z,7.90
2023-01-13T04:42:00.067Z,12.30
2023-01-13T04:44:35.376Z,5.40
2023-01-13T04:47:08.227Z,6.30
2023-01-13T04:49:40.492Z,4.50
2023-01-13T04:52:12.938Z,3.20
2023-01-13T04:54:45.072Z,4.20
2023-01-13T04:57:17.314Z,6.90
2023-01-13T04:59:49.780Z,6.10
2023-01-13T05:02:22.395Z,7.80
2023-01-13T05:04:57.213Z,5.90
2023-01-13T05:07:29.593Z,5.80
2023-01-13T05:10:04.501Z,7.30
2023-01-13T05:12:54.436Z,5.80
2023-01-13T05:15:44.114Z,7.10
2023-01-13T05:18:17.341Z,8.60
2023-01-13T05:20:50.729Z,6.60
2023-01-13T05:23:40.955Z,5.80
2023-01-13T05:26:13.463Z,7.40
2023-01-13T05:28:45.882Z,6.60
2023-01-13T05:31:20.502Z,6.70
2023-01-13T05:36:23.614Z,8.00
2023-01-13T05:38:56.127Z,6.50
2023-01-13T05:44:16.825Z,4.90
2023-01-13T05:46:49.204Z,7.70
2023-01-13T05:49:24.230Z,8.10
2023-01-13T05:51:56.389Z,6.00
2023-01-13T05:54:31.531Z,7.90
2023-01-13T05:57:03.704Z,9.60
2023-01-13T06:02:06.914Z,12.10
2023-01-13T06:04:39.612Z,11.40
2023-01-13T06:07:12.607Z,10.80
2023-01-13T06:09:45.142Z,10.90
2023-01-13T06:12:17.648Z,6.60
2023-01-13T06:14:50.823Z,7.20
2023-01-13T06:17:22.969Z,8.70
2023-01-13T06:19:55.090Z,7.50
2023-01-13T06:22:32.360Z,9.80
2023-01-13T06:25:09.285Z,11.90
2023-01-13T06:27:42.039Z,10.90
2023-01-13T06:30:15.332Z,13.30
2023-01-13T06:32:50.758Z,10.60
2023-01-13T06:35:26.926Z,10.30
2023-01-13T06:38:02.608Z,9.10
2023-01-13T06:40:34.725Z,9.40
2023-01-13T06:43:18.927Z,10.50
2023-01-13T06:45:54.168Z,9.40
2023-01-13T06:48:29.133Z,8.40
2023-01-13T06:51:01.954Z,8.40
2023-01-13T06:53:34.624Z,8.20
2023-01-13T06:56:07.435Z,11.90
2023-01-13T06:58:42.880Z,24.10
2023-01-13T07:01:15.588Z,12.10
2023-01-13T07:03:48.078Z,11.70
2023-01-13T07:06:21.401Z,23.80
2023-01-13T07:08:53.742Z,10.90
2023-01-13T07:11:26.133Z,9.40
2023-01-13T07:14:15.972Z,17.60
2023-01-13T07:16:48.499Z,8.00
2023-01-13T07:19:23.870Z,11.20
2023-01-13T07:21:56.357Z,10.60
2023-01-13T07:24:28.595Z,9.60
2023-01-13T07:29:31.900Z,18.30
2023-01-13T07:32:04.487Z,18.50
2023-01-13T07:34:36.977Z,23.80
2023-01-13T07:37:09.426Z,7.60
2023-01-13T07:39:41.662Z,7.60
2023-01-13T07:42:42.818Z,7.60
2023-01-13T07:45:27.443Z,5.80
2023-01-13T07:48:11.120Z,5.40
2023-01-13T07:50:47.582Z,6.40
2023-01-13T07:53:40.330Z,6.20
2023-01-13T07:56:15.750Z,6.70
2023-01-13T08:01:23.136Z,6.50
2023-01-13T08:03:56.113Z,5.40
2023-01-13T08:06:28.882Z,7.50
2023-01-13T08:09:01.552Z,8.00
2023-01-13T08:11:33.606Z,7.80
2023-01-13T08:14:05.707Z,6.60
2023-01-13T08:19:08.813Z,7.00
2023-01-13T08:21:41.128Z,5.40
2023-01-13T08:26:44.125Z,4.80
2023-01-13T08:29:20.862Z,4.50
2023-01-13T08:31:53.213Z,6.00
2023-01-13T08:34:27.742Z,4.50
2023-01-13T08:39:32.102Z,7.60
2023-01-13T08:42:04.758Z,6.80
2023-01-13T08:44:37.485Z,9.10
2023-01-13T08:47:09.752Z,8.70
2023-01-13T08:49:42.029Z,5.00
2023-01-13T08:54:44.971Z,38.30
2023-01-13T08:57:19.563Z,16.10
2023-01-13T08:59:52.134Z,7.80
2023-01-13T09:02:26.687Z,7.80
2023-01-13T09:05:02.901Z,8.00
2023-01-13T09:07:35.542Z,6.50
2023-01-13T09:10:09.694Z,10.00
2023-01-13T09:12:59.736Z,8.50
2023-01-13T09:15:32.068Z,8.80
2023-01-13T09:18:04.425Z,8.40
2023-01-13T09:20:36.976Z,7.20
2023-01-13T09:23:10.861Z,7.10
2023-01-13T09:25:43.461Z,10.10
2023-01-13T09:30:46.582Z,7.30
2023-01-13T09:33:36.537Z,16.40
2023-01-13T09:36:11.493Z,6.80
2023-01-13T09:38:43.735Z,20.80
2023-01-13T09:44:09.003Z,8.80
2023-01-13T09:46:48.320Z,14.80
2023-01-13T09:49:24.005Z,9.30
2023-01-13T09:52:05.791Z,31.30
2023-01-13T09:54:43.001Z,35.20
2023-01-13T09:57:18.166Z,61.00
2023-01-13T09:59:50.749Z,52.60
2023-01-13T10:02:39.426Z,35.40
2023-01-13T10:05:28.713Z,43.00
2023-01-13T10:08:05.292Z,62.60
2023-01-13T10:10:43.093Z,30.70
2023-01-13T10:13:21.859Z,7.10
2023-01-13T10:16:08.959Z,10.00
2023-01-13T10:18:51.903Z,7.80
2023-01-13T10:21:52.561Z,10.30
2023-01-13T10:24:41.410Z,11.00
2023-01-13T10:27:20.971Z,13.60
2023-01-13T10:29:53.221Z,11.00
2023-01-13T10:32:25.728Z,13.30
2023-01-13T10:37:56.691Z,15.40
2023-01-13T10:40:28.943Z,20.30
2023-01-13T10:43:08.279Z,10.20
2023-01-13T10:45:40.659Z,19.60
2023-01-13T10:48:17.054Z,6.30
2023-01-13T10:50:51.654Z,9.00
2023-01-13T10:53:26.357Z,10.80
2023-01-13T10:56:06.477Z,8.00
2023-01-13T10:58:38.686Z,8.80
2023-01-13T11:01:22.188Z,10.70
2023-01-13T11:03:55.892Z,14.70
2023-01-13T11:06:30.743Z,12.80
2023-01-13T11:09:20.046Z,7.90
2023-01-13T11:11:55.925Z,8.40
2023-01-13T11:14:39.822Z,7.60
2023-01-13T11:17:32.138Z,7.10
2023-01-13T11:20:18.552Z,9.90
2023-01-13T11:22:53.119Z,8.50
2023-01-13T11:25:32.954Z,4.00
2023-01-13T11:28:14.822Z,9.50
2023-01-13T11:30:57.712Z,9.70
2023-01-13T11:33:44.008Z,8.30
2023-01-13T11:36:21.299Z,8.50
2023-01-13T11:39:00.026Z,7.60
2023-01-13T11:41:40.721Z,8.50
2023-01-13T11:44:20.626Z,9.50
2023-01-13T11:46:54.590Z,12.80
2023-01-13T11:49:31.490Z,23.10
2023-01-13T11:52:10.075Z,27.10
2023-01-13T11:55:02.487Z,15.30
2023-01-13T11:57:48.403Z,17.60
2023-01-13T12:00:28.569Z,8.20
2023-01-13T12:03:18.294Z,7.70
2023-01-13T12:06:09.705Z,13.20
2023-01-13T12:09:11.894Z,13.40
2023-01-13T12:12:10.265Z,11.30
2023-01-13T12:14:57.576Z,9.70
2023-01-13T12:17:36.043Z,12.30
2023-01-13T12:20:28.662Z,16.20
2023-01-13T12:25:39.705Z,22.70
2023-01-13T12:28:18.288Z,25.20
2023-01-13T12:30:54.576Z,18.40
2023-01-13T12:33:41.636Z,9.90
2023-01-13T12:36:20.371Z,9.50
2023-01-13T12:38:58.322Z,15.80
2023-01-13T12:41:58.745Z,12.70
2023-01-13T12:44:30.995Z,25.30
2023-01-13T12:47:03.494Z,17.70
2023-01-13T12:49:36.635Z,30.80
2023-01-13T12:52:20.021Z,11.20
2023-01-13T12:55:14.200Z,7.70
2023-01-13T12:58:15.718Z,13.10
2023-01-13T13:01:01.913Z,10.80
2023-01-13T13:03:38.275Z,9.80
2023-01-13T13:06:24.507Z,11.00
2023-01-13T13:09:07.057Z,8.50
2023-01-13T13:12:00.560Z,7.20
2023-01-13T13:15:05.496Z,12.40
2023-01-13T13:17:45.587Z,8.70
2023-01-13T13:20:54.038Z,16.40
2023-01-13T13:23:48.081Z,11.10
2023-01-13T13:26:37.428Z,13.80
2023-01-13T13:29:35.870Z,33.60
2023-01-13T13:32:21.800Z,36.90
2023-01-13T13:35:03.172Z,23.10
2023-01-13T13:38:12.530Z,40.90
2023-01-13T13:41:06.634Z,46.10
2023-01-13T13:44:00.273Z,36.70
2023-01-13T13:46:50.818Z,24.30
2023-01-13T13:49:35.509Z,37.10
2023-01-13T13:52:15.551Z,27.70
2023-01-13T13:54:52.142Z,31.10
2023-01-13T13:57:33.861Z,12.60
2023-01-13T14:00:21.010Z,12.60
2023-01-13T14:02:55.451Z,12.00
2023-01-13T14:05:30.177Z,24.20
2023-01-13T14:08:05.207Z,19.40
2023-01-13T14:10:39.910Z,17.00
2023-01-13T14:13:20.938Z,23.10
2023-01-13T14:15:59.849Z,38.10
2023-01-13T14:18:37.156Z,21.70
2023-01-13T14:21:21.586Z,18.80
2023-01-13T14:23:57.780Z,15.90
2023-01-13T14:26:32.228Z,19.60
2023-01-13T14:29:05.279Z,16.50
2023-01-13T14:31:41.435Z,16.70
2023-01-13T14:34:32.826Z,20.60
2023-01-13T14:37:22.595Z,15.50
2023-01-13T14:39:55.481Z,21.90
2023-01-13T14:42:29.715Z,27.20
2023-01-13T14:45:02.641Z,28.70
2023-01-13T14:47:35.569Z,18.50
2023-01-13T14:50:22.988Z,17.40
2023-01-13T14:52:57.273Z,10.60
2023-01-13T14:55:36.555Z,8.40
2023-01-13T14:58:28.275Z,10.30
2023-01-13T15:01:31.037Z,15.40
2023-01-13T15:04:28.020Z,16.90
2023-01-13T15:07:01.560Z,25.40
2023-01-13T15:09:40.068Z,28.70
2023-01-13T15:12:29.672Z,24.10
2023-01-13T15:15:03.469Z,16.30
2023-01-13T15:17:35.796Z,15.60
2023-01-13T15:20:15.617Z,14.20
2023-01-13T15:22:48.655Z,13.70
2023-01-13T15:25:21.526Z,16.50
2023-01-13T15:33:43.665Z,14.50
2023-01-13T15:36:25.523Z,11.40
2023-01-13T15:38:59.063Z,13.90
2023-01-13T15:41:49.519Z,14.60
2023-01-13T15:44:39.717Z,9.00
2023-01-13T15:47:14.629Z,11.90
2023-01-13T15:49:47.967Z,12.10
2023-01-13T15:52:23.438Z,10.80
2023-01-13T15:54:56.438Z,10.50
2023-01-13T15:57:34.207Z,9.30
2023-01-13T16:00:14.247Z,14.50
2023-01-13T16:02:46.790Z,11.40
2023-01-13T16:05:21.698Z,8.30
2023-01-13T16:07:53.870Z,15.00
2023-01-13T16:12:59.413Z,8.80
2023-01-13T16:15:31.708Z,10.90
2023-01-13T16:18:05.304Z,14.80
2023-01-13T16:20:37.484Z,12.60
2023-01-13T16:25:40.842Z,21.60
2023-01-13T16:28:23.009Z,19.00
2023-01-13T16:30:55.470Z,18.50
2023-01-13T16:33:27.784Z,12.60
2023-01-13T16:36:10.529Z,19.30
2023-01-13T16:38:44.940Z,26.20
2023-01-13T16:41:17.683Z,51.90
2023-01-13T16:43:50.176Z,43.60
2023-01-13T16:46:27.733Z,30.60
2023-01-13T16:49:05.497Z,60.30
2023-01-13T16:51:37.818Z,25.80
2023-01-13T16:54:10.172Z,29.10
2023-01-13T16:56:42.396Z,19.80
2023-01-13T17:01:47.986Z,18.80
2023-01-13T17:04:23.599Z,12.50
2023-01-13T17:07:00.320Z,14.70
2023-01-13T17:09:32.910Z,14.10
2023-01-13T17:12:05.358Z,12.90
2023-01-13T17:14:37.682Z,16.10
2023-01-13T17:17:23.591Z,14.00
2023-01-13T17:19:55.994Z,18.10
2023-01-13T17:22:28.516Z,25.10
2023-01-13T17:25:00.945Z,26.10
2023-01-13T17:27:33.572Z,23.90
2023-01-13T17:30:06.353Z,20.20
2023-01-13T17:32:38.985Z,21.70
2023-01-13T17:35:14.336Z,18.50
2023-01-13T17:37:46.971Z,21.60
2023-01-13T17:40:19.860Z,24.70
2023-01-13T17:42:52.769Z,24.20
2023-01-13T17:45:25.362Z,23.90
2023-01-13T17:47:59.626Z,38.90
2023-01-13T17:50:35.253Z,38.60
2023-01-13T17:53:12.384Z,46.80
2023-01-13T17:55:52.442Z,42.50
2023-01-13T17:58:30.125Z,44.40
2023-01-13T18:01:07.739Z,54.10
2023-01-13T18:03:42.762Z,45.80
2023-01-13T18:06:18.852Z,61.60
2023-01-13T18:08:51.783Z,37.80
2023-01-13T18:11:24.903Z,60.00
2023-01-13T18:13:57.929Z,40.40
2023-01-13T18:16:32.031Z,34.40
2023-01-13T18:19:31.169Z,23.90
2023-01-13T18:22:21.276Z,34.20
2023-01-13T18:25:11.098Z,22.40
2023-01-13T18:27:46.564Z,32.70
2023-01-13T18:30:19.632Z,27.80
2023-01-13T18:32:52.048Z,34.80
2023-01-13T18:35:24.573Z,33.80
2023-01-13T18:40:27.424Z,26.70
2023-01-13T18:42:59.733Z,25.60
2023-01-13T18:45:36.374Z,29.60
2023-01-13T18:48:09.479Z,23.80
2023-01-13T18:50:41.747Z,39.70
2023-01-13T18:55:44.685Z,27.40
2023-01-13T18:58:17.119Z,26.40
2023-01-13T19:00:52.959Z,23.80
2023-01-13T19:03:30.040Z,26.10
2023-01-13T19:06:09.659Z,17.90
2023-01-13T19:08:42.315Z,18.50
2023-01-13T19:11:42.768Z,21.10
2023-01-13T19:14:34.095Z,20.20
2023-01-13T19:17:11.296Z,19.60
2023-01-13T19:19:45.510Z,18.80
2023-01-13T19:22:38.097Z,23.90
2023-01-13T19:25:12.343Z,30.60
2023-01-13T19:27:45.414Z,25.70
2023-01-13T19:30:19.104Z,23.30
2023-01-13T19:32:51.461Z,28.90
2023-01-13T19:35:27.611Z,25.00
2023-01-13T19:38:00.131Z,22.90
2023-01-13T19:40:32.478Z,19.10
2023-01-13T19:43:24.768Z,23.80
2023-01-13T19:45:59.517Z,21.50
2023-01-13T19:48:32.031Z,19.60
2023-01-13T19:51:05.843Z,32.90
2023-01-13T19:53:38.119Z,25.00
2023-01-13T19:56:13.928Z,26.60
2023-01-13T19:58:50.605Z,44.60
2023-01-13T20:01:25.088Z,65.20
2023-01-13T20:04:04.460Z,440.10
2023-01-13T20:06:37.873Z,359.30
2023-01-13T20:09:14.788Z,94.70
2023-01-13T20:11:48.272Z,128.40
2023-01-13T20:14:20.992Z,122.30
2023-01-13T20:16:53.337Z,151.60
2023-01-13T20:22:04.744Z,174.10
2023-01-13T20:24:38.069Z,118.30
2023-01-13T20:27:10.473Z,115.20
2023-01-13T20:29:46.168Z,113.70
2023-01-13T20:32:18.342Z,99.60
2023-01-13T20:34:50.799Z,79.30
2023-01-13T20:37:23.410Z,77.70
2023-01-13T20:39:58.255Z,58.30
2023-01-13T20:42:31.666Z,31.40
2023-01-13T20:45:04.119Z,9.60
2023-01-13T20:47:36.412Z,4.80
2023-01-13T20:50:12.743Z,7.60
2023-01-13T20:52:45.557Z,6.80
2023-01-13T20:55:20.959Z,4.20
2023-01-13T20:57:53.313Z,4.70
2023-01-13T21:02:56.661Z,6.90
2023-01-13T21:05:29.646Z,9.30
2023-01-13T21:08:01.945Z,13.80
2023-01-13T21:10:34.116Z,22.10
2023-01-13T21:13:23.939Z,31.60
2023-01-13T21:15:56.538Z,40.20
2023-01-13T21:18:48.521Z,29.00
2023-01-13T21:21:21.784Z,29.80
2023-01-13T21:23:54.505Z,25.00
2023-01-13T21:26:26.978Z,25.50
2023-01-13T21:29:02.402Z,24.40
2023-01-13T21:31:34.519Z,32.70
2023-01-13T21:34:06.798Z,18.70
2023-01-13T21:36:39.352Z,32.80
2023-01-13T21:39:14.227Z,23.70
2023-01-13T21:42:04.490Z,16.80
2023-01-13T21:44:54.848Z,17.00
2023-01-13T21:47:44.759Z,22.70
2023-01-13T21:50:19.340Z,15.50
2023-01-13T21:52:53.393Z,15.10
2023-01-13T21:55:28.605Z,14.60
2023-01-13T21:58:13.445Z,9.40
2023-01-13T22:00:46.501Z,9.60
2023-01-13T22:03:22.298Z,6.80
2023-01-13T22:05:57.895Z,6.20
2023-01-13T22:08:33.552Z,7.10
2023-01-13T22:11:06.627Z,7.20
2023-01-13T22:13:58.191Z,8.20
2023-01-13T22:16:31.605Z,11.90
2023-01-13T22:19:04.487Z,24.80
2023-01-13T22:21:37.624Z,25.70
2023-01-13T22:24:10.661Z,25.10
2023-01-13T22:26:43.016Z,23.80
2023-01-13T22:31:57.161Z,28.60
2023-01-13T22:34:32.840Z,29.90
2023-01-13T22:37:05.705Z,23.40
2023-01-13T22:39:38.066Z,14.00
2023-01-13T22:42:11.697Z,10.00
2023-01-13T22:44:45.530Z,9.20
2023-01-13T22:47:18.093Z,6.90
2023-01-13T22:49:50.172Z,9.30
2023-01-13T22:52:22.608Z,18.50
2023-01-13T22:54:55.045Z,6.80
2023-01-13T22:59:58.029Z,2.90
2023-01-13T23:02:34.465Z,7.10
2023-01-13T23:05:10.806Z,3.20
2023-01-13T23:07:43.381Z,4.60
2023-01-13T23:10:15.971Z,5.20
2023-01-13T23:12:48.998Z,6.10
2023-01-13T23:15:21.330Z,3.40
2023-01-13T23:20:25.102Z,6.10
2023-01-13T23:22:59.112Z,6.50
2023-01-13T23:25:31.696Z,4.40
2023-01-13T23:28:04.032Z,4.80
2023-01-13T23:30:36.241Z,6.70
2023-01-13T23:33:08.894Z,8.70
2023-01-13T23:38:11.597Z,10.10
2023-01-13T23:40:46.395Z,10.90
2023-01-13T23:43:21.381Z,7.30
2023-01-13T23:46:03.941Z,10.90
2023-01-13T23:48:36.802Z,12.80
2023-01-13T23:51:12.341Z,13.80
2023-01-13T23:53:47.118Z,16.80
2023-01-13T23:56:21.750Z,13.90
2023-01-13T23:58:54.468Z,16.40
